Portavogie, United Kingdom
Current Conditions -  °F | °C
As of 8:50 PM on Tuesday 27 Jan 2015 (Local Time) from EGAC Reporting Station
Broken Clouds Broken Clouds  
Wind Chill: 37°   Ceiling: 1400
Heat Index: 45°   Visibility: 6mi
Dew Point: 41°   Wind: 16mph
Humidity: 87%   Direction: 220°SW
Pressure: 29.91"   Gusts: NA
Location:  54.46°N, 5.44°W
Report Text: EGAC 272050Z 22014KT 9999 SCT010 BKN014 07/05 Q1013
Loading
Personal Weather Stations






























Interactive Weather Map New forecast layout! Learn more

10-Day Weather Forecast

Advertisements
Track Severe Weather on mobile